sensor_id;sensor_type;location;lat;lon;timestamp;temperature;humidity
47310;DHT22;33046;52.270;6.832;2022-08-30T00:01:54;19.50;90.10
47310;DHT22;33046;52.270;6.832;2022-08-30T00:04:01;19.40;90.30
47310;DHT22;33046;52.270;6.832;2022-08-30T00:06:08;19.40;90.50
47310;DHT22;33046;52.270;6.832;2022-08-30T00:08:16;19.40;90.50
47310;DHT22;33046;52.270;6.832;2022-08-30T00:10:23;19.30;90.60
47310;DHT22;33046;52.270;6.832;2022-08-30T00:12:30;19.30;90.50
47310;DHT22;33046;52.270;6.832;2022-08-30T00:14:38;19.30;90.60
47310;DHT22;33046;52.270;6.832;2022-08-30T00:16:45;19.30;90.70
47310;DHT22;33046;52.270;6.832;2022-08-30T00:18:52;19.30;90.70
47310;DHT22;33046;52.270;6.832;2022-08-30T00:20:59;19.30;90.90
47310;DHT22;33046;52.270;6.832;2022-08-30T00:23:06;19.20;90.80
47310;DHT22;33046;52.270;6.832;2022-08-30T00:25:14;19.20;90.80
47310;DHT22;33046;52.270;6.832;2022-08-30T00:27:21;19.20;90.90
47310;DHT22;33046;52.270;6.832;2022-08-30T00:29:28;19.20;90.90
47310;DHT22;33046;52.270;6.832;2022-08-30T00:31:36;19.20;90.90
47310;DHT22;33046;52.270;6.832;2022-08-30T00:33:43;19.20;90.90
47310;DHT22;33046;52.270;6.832;2022-08-30T00:35:50;19.20;91.00
47310;DHT22;33046;52.270;6.832;2022-08-30T00:37:56;19.10;91.00
47310;DHT22;33046;52.270;6.832;2022-08-30T00:40:05;19.20;91.00
47310;DHT22;33046;52.270;6.832;2022-08-30T00:42:14;19.20;91.00
47310;DHT22;33046;52.270;6.832;2022-08-30T00:44:20;19.20;91.10
47310;DHT22;33046;52.270;6.832;2022-08-30T00:46:28;19.20;91.20
47310;DHT22;33046;52.270;6.832;2022-08-30T00:48:40;19.20;91.30
47310;DHT22;33046;52.270;6.832;2022-08-30T00:50:51;19.20;91.40
47310;DHT22;33046;52.270;6.832;2022-08-30T00:53:00;19.20;91.30
47310;DHT22;33046;52.270;6.832;2022-08-30T00:55:10;19.20;91.20
47310;DHT22;33046;52.270;6.832;2022-08-30T00:57:17;19.20;91.30
47310;DHT22;33046;52.270;6.832;2022-08-30T00:59:25;19.10;91.40
47310;DHT22;33046;52.270;6.832;2022-08-30T01:01:33;19.20;91.30
47310;DHT22;33046;52.270;6.832;2022-08-30T01:03:42;19.20;91.20
47310;DHT22;33046;52.270;6.832;2022-08-30T01:05:50;19.20;91.30
47310;DHT22;33046;52.270;6.832;2022-08-30T01:07:57;19.10;91.40
47310;DHT22;33046;52.270;6.832;2022-08-30T01:10:05;19.10;91.40
47310;DHT22;33046;52.270;6.832;2022-08-30T01:12:12;19.10;91.40
47310;DHT22;33046;52.270;6.832;2022-08-30T01:14:19;19.10;91.30
47310;DHT22;33046;52.270;6.832;2022-08-30T01:16:26;19.10;91.40
47310;DHT22;33046;52.270;6.832;2022-08-30T01:18:34;19.10;91.30
47310;DHT22;33046;52.270;6.832;2022-08-30T01:20:46;19.10;91.30
47310;DHT22;33046;52.270;6.832;2022-08-30T01:23:03;19.10;91.20
47310;DHT22;33046;52.270;6.832;2022-08-30T01:25:12;19.10;91.30
47310;DHT22;33046;52.270;6.832;2022-08-30T01:27:21;19.10;91.20
47310;DHT22;33046;52.270;6.832;2022-08-30T01:29:28;19.10;91.30
47310;DHT22;33046;52.270;6.832;2022-08-30T01:31:35;19.10;91.30
47310;DHT22;33046;52.270;6.832;2022-08-30T01:33:42;19.10;91.20
47310;DHT22;33046;52.270;6.832;2022-08-30T01:35:51;19.10;91.30
47310;DHT22;33046;52.270;6.832;2022-08-30T01:38:00;19.10;91.20
47310;DHT22;33046;52.270;6.832;2022-08-30T01:40:08;19.10;91.20
47310;DHT22;33046;52.270;6.832;2022-08-30T01:42:16;19.10;91.20
47310;DHT22;33046;52.270;6.832;2022-08-30T01:44:23;19.10;91.20
47310;DHT22;33046;52.270;6.832;2022-08-30T01:46:33;19.10;91.00
47310;DHT22;33046;52.270;6.832;2022-08-30T01:48:41;19.00;91.00
47310;DHT22;33046;52.270;6.832;2022-08-30T01:50:48;19.00;91.00
47310;DHT22;33046;52.270;6.832;2022-08-30T01:52:55;19.00;91.10
47310;DHT22;33046;52.270;6.832;2022-08-30T01:55:04;19.00;91.20
47310;DHT22;33046;52.270;6.832;2022-08-30T01:57:14;18.90;91.10
47310;DHT22;33046;52.270;6.832;2022-08-30T01:59:21;18.90;91.10
47310;DHT22;33046;52.270;6.832;2022-08-30T02:01:28;18.90;91.10
47310;DHT22;33046;52.270;6.832;2022-08-30T02:03:35;18.90;91.20
47310;DHT22;33046;52.270;6.832;2022-08-30T02:05:42;18.90;91.20
47310;DHT22;33046;52.270;6.832;2022-08-30T02:07:49;18.90;91.20
47310;DHT22;33046;52.270;6.832;2022-08-30T02:09:55;18.90;91.20
47310;DHT22;33046;52.270;6.832;2022-08-30T02:12:05;18.90;91.20
47310;DHT22;33046;52.270;6.832;2022-08-30T02:14:12;18.80;91.10
47310;DHT22;33046;52.270;6.832;2022-08-30T02:16:21;18.80;91.20
47310;DHT22;33046;52.270;6.832;2022-08-30T02:18:31;18.80;91.10
47310;DHT22;33046;52.270;6.832;2022-08-30T02:20:39;18.70;90.90
47310;DHT22;33046;52.270;6.832;2022-08-30T02:22:45;18.70;90.80
47310;DHT22;33046;52.270;6.832;2022-08-30T02:24:52;18.70;90.80
47310;DHT22;33046;52.270;6.832;2022-08-30T02:26:59;18.60;90.90
47310;DHT22;33046;52.270;6.832;2022-08-30T02:29:07;18.60;90.90
47310;DHT22;33046;52.270;6.832;2022-08-30T02:31:14;18.60;90.80
47310;DHT22;33046;52.270;6.832;2022-08-30T02:33:21;18.60;91.00
47310;DHT22;33046;52.270;6.832;2022-08-30T02:35:28;18.60;91.00
47310;DHT22;33046;52.270;6.832;2022-08-30T02:37:35;18.60;91.20
47310;DHT22;33046;52.270;6.832;2022-08-30T02:39:42;18.50;91.00
47310;DHT22;33046;52.270;6.832;2022-08-30T02:41:49;18.50;91.00
47310;DHT22;33046;52.270;6.832;2022-08-30T02:43:56;18.40;91.00
47310;DHT22;33046;52.270;6.832;2022-08-30T02:46:04;18.40;90.90
47310;DHT22;33046;52.270;6.832;2022-08-30T02:48:11;18.40;90.80
47310;DHT22;33046;52.270;6.832;2022-08-30T02:50:18;18.30;90.90
47310;DHT22;33046;52.270;6.832;2022-08-30T02:52:25;18.30;91.00
47310;DHT22;33046;52.270;6.832;2022-08-30T02:54:32;18.30;91.10
47310;DHT22;33046;52.270;6.832;2022-08-30T02:56:38;18.30;91.20
47310;DHT22;33046;52.270;6.832;2022-08-30T02:58:45;18.30;91.40
47310;DHT22;33046;52.270;6.832;2022-08-30T03:00:52;18.20;91.50
47310;DHT22;33046;52.270;6.832;2022-08-30T03:03:00;18.30;91.60
47310;DHT22;33046;52.270;6.832;2022-08-30T03:05:07;18.20;91.80
47310;DHT22;33046;52.270;6.832;2022-08-30T03:07:14;18.20;92.00
47310;DHT22;33046;52.270;6.832;2022-08-30T03:09:21;18.20;92.00
47310;DHT22;33046;52.270;6.832;2022-08-30T03:11:28;18.20;92.00
47310;DHT22;33046;52.270;6.832;2022-08-30T03:13:35;18.20;92.20
47310;DHT22;33046;52.270;6.832;2022-08-30T03:15:42;18.20;92.20
47310;DHT22;33046;52.270;6.832;2022-08-30T03:17:48;18.20;92.20
47310;DHT22;33046;52.270;6.832;2022-08-30T03:19:57;18.20;92.10
47310;DHT22;33046;52.270;6.832;2022-08-30T03:22:04;18.10;92.20
47310;DHT22;33046;52.270;6.832;2022-08-30T03:24:11;18.10;92.20
47310;DHT22;33046;52.270;6.832;2022-08-30T03:26:18;18.10;92.20
47310;DHT22;33046;52.270;6.832;2022-08-30T03:28:25;18.10;92.20
47310;DHT22;33046;52.270;6.832;2022-08-30T03:30:32;18.10;92.10
47310;DHT22;33046;52.270;6.832;2022-08-30T03:32:40;18.10;92.10
47310;DHT22;33046;52.270;6.832;2022-08-30T03:34:46;18.00;92.00
47310;DHT22;33046;52.270;6.832;2022-08-30T03:36:55;18.10;91.90
47310;DHT22;33046;52.270;6.832;2022-08-30T03:39:02;18.00;92.00
47310;DHT22;33046;52.270;6.832;2022-08-30T03:41:09;18.00;92.20
47310;DHT22;33046;52.270;6.832;2022-08-30T03:43:16;18.00;92.30
47310;DHT22;33046;52.270;6.832;2022-08-30T03:45:22;18.00;92.30
47310;DHT22;33046;52.270;6.832;2022-08-30T03:47:29;18.00;92.30
47310;DHT22;33046;52.270;6.832;2022-08-30T03:49:37;18.00;92.50
47310;DHT22;33046;52.270;6.832;2022-08-30T03:51:44;18.00;92.30
47310;DHT22;33046;52.270;6.832;2022-08-30T03:53:52;18.00;92.30
47310;DHT22;33046;52.270;6.832;2022-08-30T03:55:58;18.00;92.20
47310;DHT22;33046;52.270;6.832;2022-08-30T03:58:05;18.00;92.30
47310;DHT22;33046;52.270;6.832;2022-08-30T04:00:13;18.00;92.30
47310;DHT22;33046;52.270;6.832;2022-08-30T04:02:20;18.00;92.30
47310;DHT22;33046;52.270;6.832;2022-08-30T04:04:27;18.00;92.20
47310;DHT22;33046;52.270;6.832;2022-08-30T04:06:34;18.00;92.20
47310;DHT22;33046;52.270;6.832;2022-08-30T04:08:40;18.00;92.20
47310;DHT22;33046;52.270;6.832;2022-08-30T04:10:49;18.00;92.30
47310;DHT22;33046;52.270;6.832;2022-08-30T04:12:55;18.00;92.30
47310;DHT22;33046;52.270;6.832;2022-08-30T04:15:03;17.90;92.20
47310;DHT22;33046;52.270;6.832;2022-08-30T04:17:10;17.90;92.20
47310;DHT22;33046;52.270;6.832;2022-08-30T04:19:17;17.90;91.90
47310;DHT22;33046;52.270;6.832;2022-08-30T04:21:23;17.90;91.80
47310;DHT22;33046;52.270;6.832;2022-08-30T04:23:30;17.90;91.70
47310;DHT22;33046;52.270;6.832;2022-08-30T04:25:38;17.80;91.70
47310;DHT22;33046;52.270;6.832;2022-08-30T04:27:47;17.80;91.70
47310;DHT22;33046;52.270;6.832;2022-08-30T04:29:54;17.80;91.90
47310;DHT22;33046;52.270;6.832;2022-08-30T04:32:01;17.70;91.90
47310;DHT22;33046;52.270;6.832;2022-08-30T04:34:08;17.70;92.10
47310;DHT22;33046;52.270;6.832;2022-08-30T04:36:15;17.70;92.10
47310;DHT22;33046;52.270;6.832;2022-08-30T04:38:22;17.70;91.90
47310;DHT22;33046;52.270;6.832;2022-08-30T04:40:31;17.70;92.10
47310;DHT22;33046;52.270;6.832;2022-08-30T04:42:37;17.60;92.20
47310;DHT22;33046;52.270;6.832;2022-08-30T04:44:46;17.60;92.30
47310;DHT22;33046;52.270;6.832;2022-08-30T04:46:52;17.60;92.40
47310;DHT22;33046;52.270;6.832;2022-08-30T04:48:59;17.60;92.20
47310;DHT22;33046;52.270;6.832;2022-08-30T04:51:08;17.60;92.20
47310;DHT22;33046;52.270;6.832;2022-08-30T04:53:15;17.50;92.20
47310;DHT22;33046;52.270;6.832;2022-08-30T04:55:22;17.60;92.30
47310;DHT22;33046;52.270;6.832;2022-08-30T04:57:29;17.60;92.40
47310;DHT22;33046;52.270;6.832;2022-08-30T04:59:37;17.60;92.50
47310;DHT22;33046;52.270;6.832;2022-08-30T05:01:46;17.60;92.40
47310;DHT22;33046;52.270;6.832;2022-08-30T05:03:54;17.50;92.50
47310;DHT22;33046;52.270;6.832;2022-08-30T05:06:01;17.50;92.60
47310;DHT22;33046;52.270;6.832;2022-08-30T05:08:09;17.50;92.70
47310;DHT22;33046;52.270;6.832;2022-08-30T05:10:16;17.50;92.70
47310;DHT22;33046;52.270;6.832;2022-08-30T05:12:23;17.50;92.70
47310;DHT22;33046;52.270;6.832;2022-08-30T05:14:30;17.50;92.80
47310;DHT22;33046;52.270;6.832;2022-08-30T05:16:37;17.50;92.70
47310;DHT22;33046;52.270;6.832;2022-08-30T05:18:47;17.60;92.80
47310;DHT22;33046;52.270;6.832;2022-08-30T05:21:03;17.50;92.70
47310;DHT22;33046;52.270;6.832;2022-08-30T05:23:10;17.50;92.90
47310;DHT22;33046;52.270;6.832;2022-08-30T05:25:18;17.50;93.00
47310;DHT22;33046;52.270;6.832;2022-08-30T05:27:26;17.50;93.00
47310;DHT22;33046;52.270;6.832;2022-08-30T05:29:33;17.50;92.90
47310;DHT22;33046;52.270;6.832;2022-08-30T05:31:40;17.60;92.90
47310;DHT22;33046;52.270;6.832;2022-08-30T05:33:52;17.60;92.90
47310;DHT22;33046;52.270;6.832;2022-08-30T05:35:59;17.60;92.90
47310;DHT22;33046;52.270;6.832;2022-08-30T05:38:06;17.60;93.00
47310;DHT22;33046;52.270;6.832;2022-08-30T05:40:13;17.70;93.00
47310;DHT22;33046;52.270;6.832;2022-08-30T05:42:20;17.70;93.00
47310;DHT22;33046;52.270;6.832;2022-08-30T05:44:27;17.70;93.00
47310;DHT22;33046;52.270;6.832;2022-08-30T05:46:34;17.80;92.90
47310;DHT22;33046;52.270;6.832;2022-08-30T05:48:42;17.80;92.90
47310;DHT22;33046;52.270;6.832;2022-08-30T05:50:50;17.90;92.90
47310;DHT22;33046;52.270;6.832;2022-08-30T05:52:56;17.90;93.00
47310;DHT22;33046;52.270;6.832;2022-08-30T05:55:04;17.90;93.00
47310;DHT22;33046;52.270;6.832;2022-08-30T05:57:11;18.00;92.90
47310;DHT22;33046;52.270;6.832;2022-08-30T05:59:18;18.00;92.70
47310;DHT22;33046;52.270;6.832;2022-08-30T06:01:27;18.10;92.70
47310;DHT22;33046;52.270;6.832;2022-08-30T06:03:34;18.10;92.60
47310;DHT22;33046;52.270;6.832;2022-08-30T06:05:41;18.20;92.40
47310;DHT22;33046;52.270;6.832;2022-08-30T06:07:49;18.20;92.30
47310;DHT22;33046;52.270;6.832;2022-08-30T06:09:56;18.30;92.20
47310;DHT22;33046;52.270;6.832;2022-08-30T06:12:03;18.30;92.00
47310;DHT22;33046;52.270;6.832;2022-08-30T06:14:10;18.30;92.10
47310;DHT22;33046;52.270;6.832;2022-08-30T06:16:19;18.40;92.00
47310;DHT22;33046;52.270;6.832;2022-08-30T06:18:26;18.40;92.10
47310;DHT22;33046;52.270;6.832;2022-08-30T06:20:32;18.40;92.00
47310;DHT22;33046;52.270;6.832;2022-08-30T06:22:39;18.50;92.20
47310;DHT22;33046;52.270;6.832;2022-08-30T06:24:47;18.50;92.00
47310;DHT22;33046;52.270;6.832;2022-08-30T06:27:03;18.50;91.90
47310;DHT22;33046;52.270;6.832;2022-08-30T06:29:12;18.50;91.90
47310;DHT22;33046;52.270;6.832;2022-08-30T06:31:21;18.60;92.00
47310;DHT22;33046;52.270;6.832;2022-08-30T06:33:28;18.50;91.90
47310;DHT22;33046;52.270;6.832;2022-08-30T06:35:36;18.60;91.80
47310;DHT22;33046;52.270;6.832;2022-08-30T06:37:44;18.60;91.80
47310;DHT22;33046;52.270;6.832;2022-08-30T06:39:52;18.70;91.70
47310;DHT22;33046;52.270;6.832;2022-08-30T06:41:59;18.70;91.70
47310;DHT22;33046;52.270;6.832;2022-08-30T06:44:06;18.70;91.70
47310;DHT22;33046;52.270;6.832;2022-08-30T06:46:15;18.80;91.60
47310;DHT22;33046;52.270;6.832;2022-08-30T06:48:22;18.70;91.50
47310;DHT22;33046;52.270;6.832;2022-08-30T06:50:29;18.90;91.30
47310;DHT22;33046;52.270;6.832;2022-08-30T06:52:37;19.00;91.30
47310;DHT22;33046;52.270;6.832;2022-08-30T06:54:43;19.10;91.00
47310;DHT22;33046;52.270;6.832;2022-08-30T06:56:52;19.20;90.60
47310;DHT22;33046;52.270;6.832;2022-08-30T06:59:03;19.40;90.40
47310;DHT22;33046;52.270;6.832;2022-08-30T07:01:12;19.50;90.30
47310;DHT22;33046;52.270;6.832;2022-08-30T07:03:19;19.60;90.10
47310;DHT22;33046;52.270;6.832;2022-08-30T07:05:26;19.70;89.60
47310;DHT22;33046;52.270;6.832;2022-08-30T07:07:32;19.70;89.00
47310;DHT22;33046;52.270;6.832;2022-08-30T07:09:39;19.90;89.20
47310;DHT22;33046;52.270;6.832;2022-08-30T07:11:46;19.80;89.00
47310;DHT22;33046;52.270;6.832;2022-08-30T07:13:54;19.90;88.60
47310;DHT22;33046;52.270;6.832;2022-08-30T07:16:08;20.00;87.70
47310;DHT22;33046;52.270;6.832;2022-08-30T07:18:16;19.90;87.30
47310;DHT22;33046;52.270;6.832;2022-08-30T07:20:23;20.10;87.50
47310;DHT22;33046;52.270;6.832;2022-08-30T07:22:31;20.10;87.00
47310;DHT22;33046;52.270;6.832;2022-08-30T07:24:38;20.10;86.80
47310;DHT22;33046;52.270;6.832;2022-08-30T07:26:46;20.10;86.10
47310;DHT22;33046;52.270;6.832;2022-08-30T07:28:55;20.20;86.30
47310;DHT22;33046;52.270;6.832;2022-08-30T07:31:02;20.20;86.20
47310;DHT22;33046;52.270;6.832;2022-08-30T07:33:09;20.30;86.80
47310;DHT22;33046;52.270;6.832;2022-08-30T07:35:16;20.40;87.10
47310;DHT22;33046;52.270;6.832;2022-08-30T07:37:23;20.40;86.10
47310;DHT22;33046;52.270;6.832;2022-08-30T07:39:29;20.40;86.00
47310;DHT22;33046;52.270;6.832;2022-08-30T07:41:36;20.40;86.00
47310;DHT22;33046;52.270;6.832;2022-08-30T07:43:43;20.50;86.20
47310;DHT22;33046;52.270;6.832;2022-08-30T07:45:52;20.50;84.50
47310;DHT22;33046;52.270;6.832;2022-08-30T07:47:59;20.40;83.80
47310;DHT22;33046;52.270;6.832;2022-08-30T07:50:07;20.50;84.10
47310;DHT22;33046;52.270;6.832;2022-08-30T07:52:14;20.50;83.80
47310;DHT22;33046;52.270;6.832;2022-08-30T07:54:20;20.60;84.00
47310;DHT22;33046;52.270;6.832;2022-08-30T07:56:27;20.60;83.80
47310;DHT22;33046;52.270;6.832;2022-08-30T07:58:34;20.70;83.10
47310;DHT22;33046;52.270;6.832;2022-08-30T08:00:41;20.70;83.30
47310;DHT22;33046;52.270;6.832;2022-08-30T08:02:49;20.70;82.90
47310;DHT22;33046;52.270;6.832;2022-08-30T08:04:56;20.60;81.80
47310;DHT22;33046;52.270;6.832;2022-08-30T08:07:03;20.70;82.30
47310;DHT22;33046;52.270;6.832;2022-08-30T08:09:10;20.70;81.50
47310;DHT22;33046;52.270;6.832;2022-08-30T08:11:18;20.60;81.50
47310;DHT22;33046;52.270;6.832;2022-08-30T08:13:26;20.60;81.30
47310;DHT22;33046;52.270;6.832;2022-08-30T08:15:32;20.70;80.80
47310;DHT22;33046;52.270;6.832;2022-08-30T08:17:39;20.80;81.20
47310;DHT22;33046;52.270;6.832;2022-08-30T08:19:47;20.80;80.10
47310;DHT22;33046;52.270;6.832;2022-08-30T08:21:54;20.90;80.40
47310;DHT22;33046;52.270;6.832;2022-08-30T08:24:05;20.90;80.10
47310;DHT22;33046;52.270;6.832;2022-08-30T08:26:12;20.90;79.80
47310;DHT22;33046;52.270;6.832;2022-08-30T08:28:20;21.00;80.30
47310;DHT22;33046;52.270;6.832;2022-08-30T08:30:27;21.10;80.40
47310;DHT22;33046;52.270;6.832;2022-08-30T08:32:33;21.20;79.10
47310;DHT22;33046;52.270;6.832;2022-08-30T08:34:40;21.20;77.70
47310;DHT22;33046;52.270;6.832;2022-08-30T08:36:49;21.30;77.40
47310;DHT22;33046;52.270;6.832;2022-08-30T08:38:56;21.30;77.90
47310;DHT22;33046;52.270;6.832;2022-08-30T08:41:09;21.30;76.20
47310;DHT22;33046;52.270;6.832;2022-08-30T08:43:20;21.40;76.80
47310;DHT22;33046;52.270;6.832;2022-08-30T08:45:41;21.40;75.60
47310;DHT22;33046;52.270;6.832;2022-08-30T08:47:55;21.40;75.00
47310;DHT22;33046;52.270;6.832;2022-08-30T08:50:06;21.50;76.00
47310;DHT22;33046;52.270;6.832;2022-08-30T08:52:18;21.60;76.30
47310;DHT22;33046;52.270;6.832;2022-08-30T08:54:31;21.60;74.50
47310;DHT22;33046;52.270;6.832;2022-08-30T08:56:39;21.60;74.30
47310;DHT22;33046;52.270;6.832;2022-08-30T08:58:48;21.60;74.00
47310;DHT22;33046;52.270;6.832;2022-08-30T09:00:56;21.70;73.20
47310;DHT22;33046;52.270;6.832;2022-08-30T09:03:03;21.70;72.70
47310;DHT22;33046;52.270;6.832;2022-08-30T09:05:12;21.80;73.30
47310;DHT22;33046;52.270;6.832;2022-08-30T09:07:23;21.80;74.00
47310;DHT22;33046;52.270;6.832;2022-08-30T09:09:32;21.90;73.20
47310;DHT22;33046;52.270;6.832;2022-08-30T09:11:40;22.00;74.40
47310;DHT22;33046;52.270;6.832;2022-08-30T09:13:47;22.00;72.10
47310;DHT22;33046;52.270;6.832;2022-08-30T09:15:56;22.10;74.10
47310;DHT22;33046;52.270;6.832;2022-08-30T09:18:05;22.10;72.70
47310;DHT22;33046;52.270;6.832;2022-08-30T09:20:23;22.10;71.30
47310;DHT22;33046;52.270;6.832;2022-08-30T09:22:34;22.10;71.60
47310;DHT22;33046;52.270;6.832;2022-08-30T09:24:43;22.20;71.80
47310;DHT22;33046;52.270;6.832;2022-08-30T09:26:50;22.20;72.20
47310;DHT22;33046;52.270;6.832;2022-08-30T09:28:56;22.30;72.50
47310;DHT22;33046;52.270;6.832;2022-08-30T09:31:06;22.40;71.70
47310;DHT22;33046;52.270;6.832;2022-08-30T09:33:18;22.40;69.70
47310;DHT22;33046;52.270;6.832;2022-08-30T09:35:33;22.40;70.70
47310;DHT22;33046;52.270;6.832;2022-08-30T09:37:50;22.50;70.20
47310;DHT22;33046;52.270;6.832;2022-08-30T09:39:58;22.50;69.20
47310;DHT22;33046;52.270;6.832;2022-08-30T09:42:13;22.50;68.90
47310;DHT22;33046;52.270;6.832;2022-08-30T09:44:22;22.40;68.50
47310;DHT22;33046;52.270;6.832;2022-08-30T09:46:29;22.50;67.20
47310;DHT22;33046;52.270;6.832;2022-08-30T09:48:37;22.50;67.70
47310;DHT22;33046;52.270;6.832;2022-08-30T09:50:44;22.50;68.30
47310;DHT22;33046;52.270;6.832;2022-08-30T09:52:59;22.60;69.20
47310;DHT22;33046;52.270;6.832;2022-08-30T09:55:14;22.70;69.10
47310;DHT22;33046;52.270;6.832;2022-08-30T09:57:31;22.60;67.30
47310;DHT22;33046;52.270;6.832;2022-08-30T09:59:46;22.60;67.20
47310;DHT22;33046;52.270;6.832;2022-08-30T10:02:01;22.60;67.00
47310;DHT22;33046;52.270;6.832;2022-08-30T10:04:16;22.70;67.20
47310;DHT22;33046;52.270;6.832;2022-08-30T10:06:31;22.70;66.20
47310;DHT22;33046;52.270;6.832;2022-08-30T10:08:50;22.70;65.20
47310;DHT22;33046;52.270;6.832;2022-08-30T10:11:01;22.70;65.00
47310;DHT22;33046;52.270;6.832;2022-08-30T10:13:27;22.70;66.30
47310;DHT22;33046;52.270;6.832;2022-08-30T10:15:38;22.60;64.90
47310;DHT22;33046;52.270;6.832;2022-08-30T10:17:50;22.80;65.90
47310;DHT22;33046;52.270;6.832;2022-08-30T10:20:09;22.80;66.80
47310;DHT22;33046;52.270;6.832;2022-08-30T10:22:23;23.00;66.80
47310;DHT22;33046;52.270;6.832;2022-08-30T10:24:34;23.00;65.00
47310;DHT22;33046;52.270;6.832;2022-08-30T10:26:46;23.00;64.80
47310;DHT22;33046;52.270;6.832;2022-08-30T10:28:57;23.10;64.30
47310;DHT22;33046;52.270;6.832;2022-08-30T10:31:09;23.10;64.50
47310;DHT22;33046;52.270;6.832;2022-08-30T10:33:22;23.20;63.60
47310;DHT22;33046;52.270;6.832;2022-08-30T10:35:35;23.10;63.10
47310;DHT22;33046;52.270;6.832;2022-08-30T10:37:47;23.30;64.70
47310;DHT22;33046;52.270;6.832;2022-08-30T10:39:58;23.20;63.10
47310;DHT22;33046;52.270;6.832;2022-08-30T10:42:13;23.30;63.60
47310;DHT22;33046;52.270;6.832;2022-08-30T10:44:25;23.40;63.20
47310;DHT22;33046;52.270;6.832;2022-08-30T10:46:38;23.50;64.50
47310;DHT22;33046;52.270;6.832;2022-08-30T10:48:47;23.50;62.20
47310;DHT22;33046;52.270;6.832;2022-08-30T10:50:56;23.60;63.70
47310;DHT22;33046;52.270;6.832;2022-08-30T10:53:09;23.50;62.40
47310;DHT22;33046;52.270;6.832;2022-08-30T10:55:20;23.60;62.40
47310;DHT22;33046;52.270;6.832;2022-08-30T10:57:28;23.60;61.80
47310;DHT22;33046;52.270;6.832;2022-08-30T10:59:37;23.60;61.00
47310;DHT22;33046;52.270;6.832;2022-08-30T11:02:02;23.60;61.60
47310;DHT22;33046;52.270;6.832;2022-08-30T11:04:38;23.70;62.30
47310;DHT22;33046;52.270;6.832;2022-08-30T11:06:54;23.70;61.60
47310;DHT22;33046;52.270;6.832;2022-08-30T11:09:26;23.80;62.40
47310;DHT22;33046;52.270;6.832;2022-08-30T11:11:51;23.80;60.30
47310;DHT22;33046;52.270;6.832;2022-08-30T11:14:03;23.80;59.80
47310;DHT22;33046;52.270;6.832;2022-08-30T11:16:13;23.80;60.00
47310;DHT22;33046;52.270;6.832;2022-08-30T11:18:21;23.80;59.90
47310;DHT22;33046;52.270;6.832;2022-08-30T11:20:32;23.70;59.20
47310;DHT22;33046;52.270;6.832;2022-08-30T11:25:46;23.90;60.50
47310;DHT22;33046;52.270;6.832;2022-08-30T11:27:55;24.00;59.70
47310;DHT22;33046;52.270;6.832;2022-08-30T11:32:57;24.00;59.30
47310;DHT22;33046;52.270;6.832;2022-08-30T11:35:05;24.10;59.60
47310;DHT22;33046;52.270;6.832;2022-08-30T11:37:31;24.10;59.30
47310;DHT22;33046;52.270;6.832;2022-08-30T11:40:04;24.10;58.60
47310;DHT22;33046;52.270;6.832;2022-08-30T11:42:20;24.10;59.20
47310;DHT22;33046;52.270;6.832;2022-08-30T11:44:31;24.20;59.90
47310;DHT22;33046;52.270;6.832;2022-08-30T11:46:40;24.20;59.60
47310;DHT22;33046;52.270;6.832;2022-08-30T11:48:50;24.20;58.80
47310;DHT22;33046;52.270;6.832;2022-08-30T11:51:02;24.30;59.70
47310;DHT22;33046;52.270;6.832;2022-08-30T11:53:16;24.30;58.50
47310;DHT22;33046;52.270;6.832;2022-08-30T11:55:43;24.30;59.40
47310;DHT22;33046;52.270;6.832;2022-08-30T11:57:55;24.40;59.80
47310;DHT22;33046;52.270;6.832;2022-08-30T12:00:09;24.40;58.30
47310;DHT22;33046;52.270;6.832;2022-08-30T12:02:47;24.30;59.10
47310;DHT22;33046;52.270;6.832;2022-08-30T12:04:54;24.40;58.30
47310;DHT22;33046;52.270;6.832;2022-08-30T12:07:03;24.40;58.40
47310;DHT22;33046;52.270;6.832;2022-08-30T12:09:12;24.50;58.80
47310;DHT22;33046;52.270;6.832;2022-08-30T12:12:03;24.50;57.70
47310;DHT22;33046;52.270;6.832;2022-08-30T12:14:39;24.50;58.30
47310;DHT22;33046;52.270;6.832;2022-08-30T12:16:48;24.60;58.70
47310;DHT22;33046;52.270;6.832;2022-08-30T12:18:59;24.50;57.40
47310;DHT22;33046;52.270;6.832;2022-08-30T12:21:26;24.50;57.90
47310;DHT22;33046;52.270;6.832;2022-08-30T12:23:39;24.50;58.20
47310;DHT22;33046;52.270;6.832;2022-08-30T12:25:46;24.60;59.20
47310;DHT22;33046;52.270;6.832;2022-08-30T12:28:07;24.60;58.30
47310;DHT22;33046;52.270;6.832;2022-08-30T12:30:24;24.70;58.00
47310;DHT22;33046;52.270;6.832;2022-08-30T12:32:34;24.70;59.00
47310;DHT22;33046;52.270;6.832;2022-08-30T12:34:53;24.80;57.50
47310;DHT22;33046;52.270;6.832;2022-08-30T12:37:03;24.80;57.60
47310;DHT22;33046;52.270;6.832;2022-08-30T12:39:12;24.80;58.00
47310;DHT22;33046;52.270;6.832;2022-08-30T12:41:19;24.80;57.40
47310;DHT22;33046;52.270;6.832;2022-08-30T12:43:30;24.80;58.20
47310;DHT22;33046;52.270;6.832;2022-08-30T12:45:41;24.80;57.40
47310;DHT22;33046;52.270;6.832;2022-08-30T12:47:52;24.80;58.10
47310;DHT22;33046;52.270;6.832;2022-08-30T12:49:59;24.80;57.40
47310;DHT22;33046;52.270;6.832;2022-08-30T12:52:21;24.80;57.30
47310;DHT22;33046;52.270;6.832;2022-08-30T12:54:29;24.80;57.40
47310;DHT22;33046;52.270;6.832;2022-08-30T12:57:01;24.90;57.70
47310;DHT22;33046;52.270;6.832;2022-08-30T12:59:42;24.90;58.90
47310;DHT22;33046;52.270;6.832;2022-08-30T13:01:51;25.00;58.20
47310;DHT22;33046;52.270;6.832;2022-08-30T13:04:09;25.00;57.00
47310;DHT22;33046;52.270;6.832;2022-08-30T13:06:36;24.90;56.20
47310;DHT22;33046;52.270;6.832;2022-08-30T13:08:49;25.00;56.70
47310;DHT22;33046;52.270;6.832;2022-08-30T13:10:59;24.90;56.40
47310;DHT22;33046;52.270;6.832;2022-08-30T13:13:10;24.90;56.90
47310;DHT22;33046;52.270;6.832;2022-08-30T13:15:18;24.90;56.80
47310;DHT22;33046;52.270;6.832;2022-08-30T13:17:27;24.90;56.80
47310;DHT22;33046;52.270;6.832;2022-08-30T13:19:37;25.00;56.90
47310;DHT22;33046;52.270;6.832;2022-08-30T13:21:49;25.00;56.80
47310;DHT22;33046;52.270;6.832;2022-08-30T13:23:58;25.00;57.00
47310;DHT22;33046;52.270;6.832;2022-08-30T13:26:06;25.10;57.00
47310;DHT22;33046;52.270;6.832;2022-08-30T13:28:13;25.20;55.90
47310;DHT22;33046;52.270;6.832;2022-08-30T13:30:20;25.20;56.50
47310;DHT22;33046;52.270;6.832;2022-08-30T13:32:27;25.20;56.30
47310;DHT22;33046;52.270;6.832;2022-08-30T13:34:35;25.20;57.20
47310;DHT22;33046;52.270;6.832;2022-08-30T13:36:45;25.20;56.20
47310;DHT22;33046;52.270;6.832;2022-08-30T13:38:52;25.30;56.20
47310;DHT22;33046;52.270;6.832;2022-08-30T13:40:59;25.40;57.10
47310;DHT22;33046;52.270;6.832;2022-08-30T13:43:06;25.40;56.30
47310;DHT22;33046;52.270;6.832;2022-08-30T13:45:14;25.40;55.60